createdAt,value
2023-04-06T00:01:00.502Z,-0.50
2023-04-06T00:03:27.545Z,-0.60
2023-04-06T00:05:54.554Z,-0.60
2023-04-06T00:08:22.489Z,-0.60
2023-04-06T00:10:49.434Z,-0.60
2023-04-06T00:13:16.391Z,-0.60
2023-04-06T00:15:43.367Z,-0.50
2023-04-06T00:18:10.473Z,-0.60
2023-04-06T00:20:37.606Z,-0.60
2023-04-06T00:23:04.742Z,-0.60
2023-04-06T00:25:31.631Z,-0.60
2023-04-06T00:27:58.583Z,-0.60
2023-04-06T00:30:25.654Z,-0.70
2023-04-06T00:32:52.574Z,-0.70
2023-04-06T00:35:19.641Z,-0.70
2023-04-06T00:37:49.155Z,-0.70
2023-04-06T00:40:16.602Z,-0.70
2023-04-06T00:42:43.649Z,-0.70
2023-04-06T00:45:11.350Z,-0.70
2023-04-06T00:47:38.575Z,-0.70
2023-04-06T00:50:06.068Z,-0.70
2023-04-06T00:52:33.105Z,-0.70
2023-04-06T00:54:59.969Z,-0.80
2023-04-06T00:57:26.991Z,-0.80
2023-04-06T00:59:54.533Z,-0.80
2023-04-06T01:02:21.625Z,-0.80
2023-04-06T01:04:48.605Z,-0.80
2023-04-06T01:07:15.613Z,-0.90
2023-04-06T01:09:43.085Z,-0.90
2023-04-06T01:12:10.188Z,-0.90
2023-04-06T01:14:37.182Z,-0.90
2023-04-06T01:17:04.164Z,-0.90
2023-04-06T01:19:31.019Z,-0.90
2023-04-06T01:21:57.970Z,-0.90
2023-04-06T01:24:24.901Z,-0.90
2023-04-06T01:26:51.807Z,-0.90
2023-04-06T01:29:18.769Z,-1.00
2023-04-06T01:31:45.781Z,-1.00
2023-04-06T01:34:12.804Z,-1.00
2023-04-06T01:36:39.786Z,-1.00
2023-04-06T01:39:06.899Z,-1.00
2023-04-06T01:41:33.946Z,-1.00
2023-04-06T01:44:01.116Z,-0.90
2023-04-06T01:46:28.160Z,-0.90
2023-04-06T01:48:55.032Z,-0.90
2023-04-06T01:51:22.092Z,-0.90
2023-04-06T01:53:50.338Z,-0.90
2023-04-06T01:56:17.328Z,-0.90
2023-04-06T01:58:44.262Z,-1.00
2023-04-06T02:01:11.170Z,-1.00
2023-04-06T02:03:38.137Z,-1.10
2023-04-06T02:06:05.168Z,-1.10
2023-04-06T02:08:32.287Z,-1.10
2023-04-06T02:10:59.195Z,-1.20
2023-04-06T02:13:26.357Z,-1.20
2023-04-06T02:15:53.389Z,-1.20
2023-04-06T02:18:20.539Z,-1.30
2023-04-06T02:20:47.473Z,-1.30
2023-04-06T02:23:14.521Z,-1.30
2023-04-06T02:25:41.997Z,-1.30
2023-04-06T02:28:10.081Z,-1.30
2023-04-06T02:30:37.003Z,-1.30
2023-04-06T02:33:04.194Z,-1.30
2023-04-06T02:35:32.199Z,-1.30
2023-04-06T02:37:59.227Z,-1.40
2023-04-06T02:40:26.259Z,-1.40
2023-04-06T02:42:53.265Z,-1.50
2023-04-06T02:45:20.340Z,-1.50
2023-04-06T02:47:47.301Z,-1.50
2023-04-06T02:50:14.313Z,-1.50
2023-04-06T02:52:41.228Z,-1.50
2023-04-06T02:55:08.869Z,-1.40
2023-04-06T02:57:35.782Z,-1.30
2023-04-06T03:00:02.806Z,-1.30
2023-04-06T03:02:29.778Z,-1.20
2023-04-06T03:04:56.766Z,-1.20
2023-04-06T03:07:23.703Z,-1.30
2023-04-06T03:09:50.814Z,-1.40
2023-04-06T03:12:17.821Z,-1.40
2023-04-06T03:14:44.640Z,-1.50
2023-04-06T03:17:11.610Z,-1.60
2023-04-06T03:19:38.454Z,-1.60
2023-04-06T03:22:05.424Z,-1.60
2023-04-06T03:24:32.407Z,-1.60
2023-04-06T03:26:59.268Z,-1.70
2023-04-06T03:29:26.389Z,-1.70
2023-04-06T03:31:53.235Z,-1.70
2023-04-06T03:34:20.103Z,-1.70
2023-04-06T03:36:48.412Z,-1.70
2023-04-06T03:39:20.881Z,-1.70
2023-04-06T03:41:47.763Z,-1.70
2023-04-06T03:44:14.713Z,-1.70
2023-04-06T03:46:41.623Z,-1.80
2023-04-06T03:49:08.832Z,-1.80
2023-04-06T03:51:35.873Z,-1.80
2023-04-06T03:54:02.799Z,-1.90
2023-04-06T03:56:29.667Z,-1.90
2023-04-06T03:58:56.836Z,-1.90
2023-04-06T04:01:23.874Z,-1.90
2023-04-06T04:03:51.929Z,-2.00
2023-04-06T04:06:19.027Z,-2.00
2023-04-06T04:08:46.073Z,-2.00
2023-04-06T04:11:12.966Z,-2.00
2023-04-06T04:13:39.896Z,-2.10
2023-04-06T04:16:06.886Z,-2.00
2023-04-06T04:18:33.877Z,-2.10
2023-04-06T04:21:01.258Z,-2.10
2023-04-06T04:23:28.161Z,-2.10
2023-04-06T04:25:55.050Z,-2.10
2023-04-06T04:28:21.963Z,-2.20
2023-04-06T04:30:48.890Z,-2.20
2023-04-06T04:33:15.910Z,-2.20
2023-04-06T04:35:43.060Z,-2.20
2023-04-06T04:38:09.931Z,-2.20
2023-04-06T04:40:36.804Z,-2.20
2023-04-06T04:43:03.756Z,-2.10
2023-04-06T04:45:30.740Z,-2.10
2023-04-06T04:47:57.734Z,-2.10
2023-04-06T04:50:24.625Z,-2.00
2023-04-06T04:52:51.608Z,-2.00
2023-04-06T04:55:18.822Z,-2.00
2023-04-06T04:57:45.631Z,-2.00
2023-04-06T05:00:13.224Z,-2.00
2023-04-06T05:02:40.659Z,-2.00
2023-04-06T05:05:08.358Z,-1.90
2023-04-06T05:07:35.472Z,-1.90
2023-04-06T05:10:02.345Z,-1.90
2023-04-06T05:12:30.333Z,-1.80
2023-04-06T05:14:57.275Z,-1.80
2023-04-06T05:17:24.219Z,-1.70
2023-04-06T05:19:51.268Z,-1.70
2023-04-06T05:22:18.764Z,-1.50
2023-04-06T05:24:45.900Z,-1.50
2023-04-06T05:27:12.856Z,-1.40
2023-04-06T05:29:39.884Z,-1.30
2023-04-06T05:32:07.580Z,-1.20
2023-04-06T05:34:34.593Z,-1.10
2023-04-06T05:37:01.628Z,-1.00
2023-04-06T05:39:28.608Z,-0.90
2023-04-06T05:41:56.202Z,-0.70
2023-04-06T05:44:23.114Z,-0.60
2023-04-06T05:46:50.099Z,-0.40
2023-04-06T05:49:17.250Z,-0.30
2023-04-06T05:52:17.168Z,-0.10
2023-04-06T05:55:35.969Z,0.00
2023-04-06T05:58:08.183Z,0.10
2023-04-06T06:00:36.994Z,0.50
2023-04-06T06:03:13.624Z,0.60
2023-04-06T06:05:42.973Z,0.70
2023-04-06T06:08:15.238Z,0.80
2023-04-06T06:10:42.256Z,0.90
2023-04-06T06:13:19.029Z,1.10
2023-04-06T06:15:46.513Z,2.90
2023-04-06T06:18:18.615Z,2.00
2023-04-06T06:20:53.958Z,2.50
2023-04-06T06:23:20.881Z,3.10
2023-04-06T06:25:50.649Z,3.70
2023-04-06T06:28:26.404Z,2.30
2023-04-06T06:30:53.545Z,6.40
2023-04-06T06:33:20.882Z,4.30
2023-04-06T06:35:47.824Z,4.30
2023-04-06T06:38:14.697Z,4.10
2023-04-06T06:40:42.275Z,4.00
2023-04-06T06:43:09.243Z,3.90
2023-04-06T06:45:36.518Z,3.70
2023-04-06T06:48:03.736Z,3.60
2023-04-06T06:50:30.926Z,3.60
2023-04-06T06:52:57.937Z,3.80
2023-04-06T06:55:24.859Z,3.60
2023-04-06T06:57:51.823Z,3.60
2023-04-06T07:00:19.069Z,3.60
2023-04-06T07:02:46.077Z,3.60
2023-04-06T07:05:27.028Z,3.60
2023-04-06T07:07:56.290Z,3.60
2023-04-06T07:10:23.444Z,3.70
2023-04-06T07:12:50.455Z,3.70
2023-04-06T07:15:18.205Z,3.00
2023-04-06T07:17:48.275Z,3.80
2023-04-06T07:20:15.705Z,3.80
2023-04-06T07:22:49.338Z,3.90
2023-04-06T07:25:16.393Z,3.90
2023-04-06T07:27:43.338Z,3.70
2023-04-06T07:30:10.655Z,3.70
2023-04-06T07:32:37.550Z,3.50
2023-04-06T07:35:05.102Z,3.40
2023-04-06T07:37:35.490Z,3.40
2023-04-06T07:40:02.666Z,3.30
2023-04-06T07:42:29.684Z,3.30
2023-04-06T07:44:56.621Z,3.30
2023-04-06T07:47:24.827Z,3.40
2023-04-06T07:49:51.853Z,3.40
2023-04-06T07:52:18.754Z,3.40
2023-04-06T07:54:45.687Z,3.40
2023-04-06T07:57:12.717Z,3.30
2023-04-06T07:59:39.676Z,3.20
2023-04-06T08:02:06.793Z,3.10
2023-04-06T08:04:33.755Z,3.10
2023-04-06T08:07:00.787Z,3.10
2023-04-06T08:09:28.186Z,3.10
2023-04-06T08:11:55.239Z,3.00
2023-04-06T08:14:22.120Z,2.90
2023-04-06T08:16:49.126Z,3.00
2023-04-06T08:19:18.219Z,3.00
2023-04-06T08:21:45.329Z,3.00
2023-04-06T08:24:12.759Z,3.10
2023-04-06T08:26:39.698Z,3.30
2023-04-06T08:29:09.860Z,3.40
2023-04-06T08:31:37.603Z,4.90
2023-04-06T08:34:05.951Z,3.80
2023-04-06T08:36:32.903Z,4.10
2023-04-06T08:39:01.335Z,4.30
2023-04-06T08:41:29.000Z,4.50
2023-04-06T08:44:02.361Z,4.70
2023-04-06T08:46:31.501Z,4.70
2023-04-06T08:48:59.964Z,4.60
2023-04-06T08:51:27.876Z,4.60
2023-04-06T08:54:00.428Z,4.60
2023-04-06T08:56:29.133Z,4.50
2023-04-06T08:58:57.438Z,4.50
2023-04-06T09:01:27.341Z,4.40
2023-04-06T09:03:59.454Z,4.30
2023-04-06T09:06:28.114Z,4.30
2023-04-06T09:08:56.221Z,4.20
2023-04-06T09:11:23.567Z,4.10
2023-04-06T09:13:55.402Z,4.10
2023-04-06T09:16:24.202Z,4.10
2023-04-06T09:18:51.670Z,4.00
2023-04-06T09:21:21.546Z,4.10
2023-04-06T09:24:01.132Z,4.20
2023-04-06T09:26:28.436Z,4.40
2023-04-06T09:28:57.409Z,4.40
2023-04-06T09:31:31.141Z,4.30
2023-04-06T09:33:58.560Z,4.20
2023-04-06T09:36:36.575Z,4.20
2023-04-06T09:39:04.750Z,4.20
2023-04-06T09:41:37.976Z,4.20
2023-04-06T09:44:12.158Z,4.30
2023-04-06T09:46:58.752Z,4.40
2023-04-06T09:49:32.577Z,4.60
2023-04-06T09:52:08.396Z,4.70
2023-04-06T09:54:37.354Z,4.80
2023-04-06T09:57:23.008Z,4.90
2023-04-06T10:00:12.185Z,5.10
2023-04-06T10:03:16.801Z,5.20
2023-04-06T10:05:48.065Z,5.30
2023-04-06T10:08:16.373Z,5.70
2023-04-06T10:10:44.590Z,5.20
2023-04-06T10:13:12.806Z,5.20
2023-04-06T10:15:41.462Z,5.20
2023-04-06T10:18:09.303Z,5.30
2023-04-06T10:20:53.133Z,5.30
2023-04-06T10:23:36.099Z,6.40
2023-04-06T10:26:04.378Z,5.20
2023-04-06T10:28:37.186Z,5.30
2023-04-06T10:31:07.593Z,5.40
2023-04-06T10:33:35.685Z,5.40
2023-04-06T10:36:16.712Z,5.30
2023-04-06T10:38:43.792Z,5.20
2023-04-06T10:41:12.939Z,5.30
2023-04-06T10:43:43.153Z,5.30
2023-04-06T10:46:11.604Z,5.30
2023-04-06T10:48:49.112Z,5.40
2023-04-06T10:51:18.098Z,5.50
2023-04-06T10:53:47.901Z,5.70
2023-04-06T10:56:19.146Z,5.90
2023-04-06T10:58:50.355Z,6.10
2023-04-06T11:01:18.677Z,6.00
2023-04-06T11:03:50.015Z,6.10
2023-04-06T11:06:24.844Z,6.10
2023-04-06T11:08:52.608Z,6.30
2023-04-06T11:11:22.120Z,6.40
2023-04-06T11:13:57.990Z,6.50
2023-04-06T11:16:30.816Z,6.40
2023-04-06T11:19:03.449Z,6.30
2023-04-06T11:21:37.969Z,6.30
2023-04-06T11:24:06.069Z,6.30
2023-04-06T11:26:37.623Z,6.40
2023-04-06T11:29:04.981Z,6.40
2023-04-06T11:31:32.292Z,6.50
2023-04-06T11:33:59.412Z,6.50
2023-04-06T11:36:31.055Z,6.50
2023-04-06T11:38:58.136Z,7.60
2023-04-06T11:41:27.139Z,6.50
2023-04-06T11:43:56.899Z,6.60
2023-04-06T11:46:23.909Z,6.50
2023-04-06T11:48:50.945Z,6.40
2023-04-06T11:51:28.008Z,6.30
2023-04-06T11:53:55.731Z,5.00
2023-04-06T11:56:31.147Z,6.60
2023-04-06T11:59:04.155Z,6.40
2023-04-06T12:01:34.225Z,6.40
2023-04-06T12:04:04.370Z,6.40
2023-04-06T12:06:31.772Z,6.30
2023-04-06T12:08:59.583Z,6.10
2023-04-06T12:11:26.570Z,6.30
2023-04-06T12:13:54.134Z,6.40
2023-04-06T12:16:21.453Z,6.60
2023-04-06T12:18:48.499Z,6.70
2023-04-06T12:21:15.577Z,7.00
2023-04-06T12:23:42.549Z,7.10
2023-04-06T12:26:13.201Z,7.20
2023-04-06T12:28:41.185Z,7.20
2023-04-06T12:31:09.046Z,7.10
2023-04-06T12:33:35.935Z,7.00
2023-04-06T12:36:02.852Z,7.00
2023-04-06T12:38:31.487Z,7.00
2023-04-06T12:40:58.338Z,7.10
2023-04-06T12:43:25.738Z,7.10
2023-04-06T12:45:52.627Z,7.20
2023-04-06T12:48:19.598Z,7.20
2023-04-06T12:50:54.833Z,7.00
2023-04-06T12:53:21.817Z,6.90
2023-04-06T12:55:48.648Z,6.70
2023-04-06T12:58:16.202Z,6.60
2023-04-06T13:00:43.132Z,6.70
2023-04-06T13:03:10.313Z,6.60
2023-04-06T13:05:37.222Z,6.50
2023-04-06T13:08:04.209Z,6.60
2023-04-06T13:10:31.090Z,6.60
2023-04-06T13:12:58.021Z,6.50
2023-04-06T13:15:24.905Z,6.30
2023-04-06T13:17:52.943Z,6.20
2023-04-06T13:20:20.885Z,6.20
2023-04-06T13:22:47.750Z,6.30
2023-04-06T13:25:14.736Z,6.30
2023-04-06T13:27:41.634Z,6.50
2023-04-06T13:30:09.541Z,6.60
2023-04-06T13:32:37.596Z,6.50
2023-04-06T13:35:04.997Z,6.60
2023-04-06T13:37:32.003Z,6.40
2023-04-06T13:39:59.106Z,6.40
2023-04-06T13:42:26.351Z,6.10
2023-04-06T13:44:54.068Z,6.00
2023-04-06T13:47:21.869Z,6.00
2023-04-06T13:49:51.967Z,6.10
2023-04-06T13:52:19.562Z,6.10
2023-04-06T13:54:47.037Z,6.00
2023-04-06T13:57:14.206Z,5.90
2023-04-06T13:59:41.269Z,5.80
2023-04-06T14:02:11.107Z,5.70
2023-04-06T14:04:38.416Z,5.50
2023-04-06T14:07:08.277Z,5.50
2023-04-06T14:09:35.617Z,5.30
2023-04-06T14:12:02.582Z,5.30
2023-04-06T14:14:29.479Z,5.30
2023-04-06T14:16:56.752Z,5.30
2023-04-06T14:19:23.697Z,5.30
2023-04-06T14:21:50.716Z,5.30
2023-04-06T14:24:20.044Z,5.30
2023-04-06T14:26:46.923Z,5.20
2023-04-06T14:29:13.755Z,5.00
2023-04-06T14:31:41.174Z,4.90
2023-04-06T14:34:08.087Z,4.90
2023-04-06T14:36:37.557Z,5.00
2023-04-06T14:39:08.607Z,5.10
2023-04-06T14:41:35.958Z,5.30
2023-04-06T14:44:03.019Z,5.30
2023-04-06T14:46:29.936Z,5.30
2023-04-06T14:48:58.723Z,5.30
2023-04-06T14:51:28.232Z,5.30
2023-04-06T14:53:55.892Z,5.30
2023-04-06T14:56:24.246Z,5.20
2023-04-06T14:58:52.019Z,5.00
2023-04-06T15:01:21.975Z,4.90
2023-04-06T15:03:49.636Z,4.90
2023-04-06T15:06:18.704Z,4.90
2023-04-06T15:08:46.320Z,5.00
2023-04-06T15:11:13.539Z,5.00
2023-04-06T15:13:41.737Z,4.90
2023-04-06T15:16:09.221Z,4.80
2023-04-06T15:18:36.545Z,4.60
2023-04-06T15:21:03.745Z,4.60
2023-04-06T15:23:31.327Z,4.50
2023-04-06T15:25:58.824Z,4.50
2023-04-06T15:28:25.929Z,4.40
2023-04-06T15:30:52.908Z,4.50
2023-04-06T15:33:21.267Z,4.50
2023-04-06T15:35:48.398Z,4.50
2023-04-06T15:38:15.893Z,4.50
2023-04-06T15:40:48.321Z,4.50
2023-04-06T15:43:16.026Z,4.50
2023-04-06T15:45:43.077Z,4.50
2023-04-06T15:48:10.033Z,4.60
2023-04-06T15:50:37.554Z,4.60
2023-04-06T15:53:04.629Z,4.60
2023-04-06T15:55:31.550Z,4.60
2023-04-06T15:57:58.457Z,4.60
2023-04-06T16:00:25.842Z,4.60
2023-04-06T16:02:52.934Z,4.60
2023-04-06T16:05:20.113Z,4.50
2023-04-06T16:07:46.987Z,4.50
2023-04-06T16:10:13.963Z,4.50
2023-04-06T16:12:42.602Z,4.50
2023-04-06T16:15:10.054Z,4.50
2023-04-06T16:17:37.077Z,4.50
2023-04-06T16:20:04.901Z,4.50
2023-04-06T16:22:31.988Z,4.40
2023-04-06T16:24:58.893Z,4.40
2023-04-06T16:27:25.872Z,4.40
2023-04-06T16:29:52.812Z,4.40
2023-04-06T16:32:19.678Z,4.40
2023-04-06T16:34:47.326Z,4.30
2023-04-06T16:37:14.238Z,4.30
2023-04-06T16:39:41.283Z,4.20
2023-04-06T16:42:08.109Z,4.20
2023-04-06T16:44:35.335Z,4.10
2023-04-06T16:47:02.322Z,4.10
2023-04-06T16:49:29.160Z,4.10
2023-04-06T16:51:56.600Z,4.10
2023-04-06T16:54:23.567Z,4.10
2023-04-06T16:56:50.561Z,4.10
2023-04-06T16:59:17.432Z,4.10
2023-04-06T17:01:44.418Z,4.10
2023-04-06T17:04:11.536Z,4.10
2023-04-06T17:06:38.569Z,4.10
2023-04-06T17:09:05.510Z,4.00
2023-04-06T17:11:45.673Z,3.90
2023-04-06T17:14:13.688Z,4.00
2023-04-06T17:16:40.843Z,4.00
2023-04-06T17:19:08.119Z,3.90
2023-04-06T17:21:35.281Z,3.90
2023-04-06T17:24:02.214Z,3.90
2023-04-06T17:26:29.099Z,4.00
2023-04-06T17:28:56.000Z,4.00
2023-04-06T17:31:22.998Z,3.90
2023-04-06T17:33:50.517Z,3.90
2023-04-06T17:36:17.830Z,3.90
2023-04-06T17:38:46.717Z,3.80
2023-04-06T17:41:14.374Z,3.80
2023-04-06T17:43:41.374Z,3.80
2023-04-06T17:46:08.381Z,3.80
2023-04-06T17:48:35.567Z,3.70
2023-04-06T17:51:02.866Z,3.80
2023-04-06T17:53:34.483Z,3.80
2023-04-06T17:56:05.545Z,3.80
2023-04-06T17:58:32.535Z,3.80
2023-04-06T18:00:59.469Z,3.80
2023-04-06T18:03:26.476Z,3.70
2023-04-06T18:05:53.403Z,3.70
2023-04-06T18:08:21.750Z,3.70
2023-04-06T18:10:49.098Z,3.60
2023-04-06T18:13:16.248Z,3.60
2023-04-06T18:15:43.210Z,3.60
2023-04-06T18:18:10.363Z,3.60
2023-04-06T18:20:41.455Z,3.60
2023-04-06T18:23:08.471Z,3.60
2023-04-06T18:25:47.617Z,3.60
2023-04-06T18:28:14.572Z,3.50
2023-04-06T18:30:41.931Z,3.50
2023-04-06T18:33:09.014Z,3.50
2023-04-06T18:35:36.120Z,3.50
2023-04-06T18:38:03.213Z,3.50
2023-04-06T18:40:35.905Z,3.50
2023-04-06T18:43:04.697Z,3.40
2023-04-06T18:45:36.288Z,3.40
2023-04-06T18:48:03.499Z,3.40
2023-04-06T18:50:30.540Z,3.40
2023-04-06T18:52:57.515Z,3.40
2023-04-06T18:55:25.570Z,3.40
2023-04-06T18:57:52.728Z,3.30
2023-04-06T19:00:19.850Z,3.40
2023-04-06T19:02:46.926Z,3.40
2023-04-06T19:05:14.428Z,3.40
2023-04-06T19:07:42.471Z,3.40
2023-04-06T19:10:10.179Z,3.40
2023-04-06T19:12:38.944Z,3.50
2023-04-06T19:15:08.213Z,3.50
2023-04-06T19:17:35.560Z,3.40
2023-04-06T19:20:02.838Z,3.40
2023-04-06T19:22:29.796Z,3.40
2023-04-06T19:24:56.914Z,3.40
2023-04-06T19:27:23.908Z,3.30
2023-04-06T19:29:51.007Z,3.30
2023-04-06T19:32:18.284Z,3.20
2023-04-06T19:34:45.308Z,3.20
2023-04-06T19:37:12.260Z,3.30
2023-04-06T19:39:40.098Z,3.20
2023-04-06T19:42:07.149Z,3.20
2023-04-06T19:44:34.285Z,3.20
2023-04-06T19:47:01.265Z,3.20
2023-04-06T19:49:28.559Z,3.20
2023-04-06T19:51:55.883Z,3.20
2023-04-06T19:54:24.401Z,3.20
2023-04-06T19:56:51.817Z,3.30
2023-04-06T19:59:21.393Z,3.20
2023-04-06T20:01:48.476Z,3.20
2023-04-06T20:04:15.722Z,3.30
2023-04-06T20:06:42.691Z,3.20
2023-04-06T20:09:11.635Z,3.30
2023-04-06T20:11:39.051Z,3.30
2023-04-06T20:14:06.335Z,3.30
2023-04-06T20:16:33.436Z,3.30
2023-04-06T20:19:00.511Z,3.20
2023-04-06T20:21:29.793Z,3.20
2023-04-06T20:23:56.672Z,3.20
2023-04-06T20:26:23.543Z,3.20
2023-04-06T20:28:50.408Z,3.20
2023-04-06T20:31:17.263Z,3.20
2023-04-06T20:33:44.182Z,3.20
2023-04-06T20:36:12.512Z,3.30
2023-04-06T20:38:40.578Z,3.30
2023-04-06T20:41:08.171Z,3.30
2023-04-06T20:43:35.696Z,3.30
2023-04-06T20:46:03.147Z,3.30
2023-04-06T20:48:33.461Z,3.20
2023-04-06T20:51:03.201Z,3.20
2023-04-06T20:53:30.155Z,3.20
2023-04-06T20:55:58.208Z,3.30
2023-04-06T20:58:25.128Z,3.30
2023-04-06T21:00:52.202Z,3.30
2023-04-06T21:03:19.414Z,3.30
2023-04-06T21:05:54.508Z,3.20
2023-04-06T21:08:21.350Z,3.20
2023-04-06T21:10:48.222Z,3.20
2023-04-06T21:13:15.147Z,3.20
2023-04-06T21:15:42.062Z,3.30
2023-04-06T21:18:09.227Z,3.30
2023-04-06T21:20:37.125Z,3.30
2023-04-06T21:23:04.119Z,3.30
2023-04-06T21:25:31.078Z,3.30
2023-04-06T21:27:58.100Z,3.30
2023-04-06T21:30:25.042Z,3.30
2023-04-06T21:32:51.903Z,3.30
2023-04-06T21:35:18.774Z,3.30
2023-04-06T21:37:45.614Z,3.30
2023-04-06T21:40:13.499Z,3.30
2023-04-06T21:42:40.600Z,3.30
2023-04-06T21:45:08.120Z,3.30
2023-04-06T21:47:35.938Z,3.30
2023-04-06T21:50:03.570Z,3.30
2023-04-06T21:52:30.764Z,3.30
2023-04-06T21:54:57.656Z,3.30
2023-04-06T21:57:24.946Z,3.30
2023-04-06T21:59:51.834Z,3.20
2023-04-06T22:02:18.835Z,3.30
2023-04-06T22:04:46.688Z,3.30
2023-04-06T22:07:15.086Z,3.20
2023-04-06T22:09:41.990Z,3.20
2023-04-06T22:12:08.843Z,3.20
2023-04-06T22:14:36.470Z,3.20
2023-04-06T22:17:03.393Z,3.20
2023-04-06T22:19:30.275Z,3.20
2023-04-06T22:21:57.413Z,3.20
2023-04-06T22:24:24.336Z,3.10
2023-04-06T22:26:51.197Z,3.10
2023-04-06T22:29:18.022Z,3.10
2023-04-06T22:31:46.772Z,3.20
2023-04-06T22:34:14.223Z,3.20
2023-04-06T22:36:41.431Z,3.20
2023-04-06T22:39:08.255Z,3.20
2023-04-06T22:41:35.095Z,3.30
2023-04-06T22:44:02.179Z,3.30
2023-04-06T22:46:29.149Z,3.30
2023-04-06T22:48:56.019Z,3.30
2023-04-06T22:51:22.897Z,3.30
2023-04-06T22:53:49.819Z,3.40
2023-04-06T22:56:16.772Z,3.40
2023-04-06T22:58:43.631Z,3.40
2023-04-06T23:01:10.669Z,3.40
2023-04-06T23:03:37.560Z,3.40
2023-04-06T23:06:04.768Z,3.40
2023-04-06T23:08:31.683Z,3.40
2023-04-06T23:10:58.803Z,3.40
2023-04-06T23:13:25.879Z,3.40
2023-04-06T23:15:52.729Z,3.40
2023-04-06T23:18:19.698Z,3.40
2023-04-06T23:20:46.693Z,3.40
2023-04-06T23:23:13.591Z,3.40
2023-04-06T23:25:40.721Z,3.40
2023-04-06T23:28:07.720Z,3.40
2023-04-06T23:30:34.629Z,3.40
2023-04-06T23:33:01.591Z,3.40
2023-04-06T23:35:28.456Z,3.40
2023-04-06T23:37:55.630Z,3.40
2023-04-06T23:40:24.961Z,3.40
2023-04-06T23:42:51.854Z,3.40
2023-04-06T23:45:18.880Z,3.40
2023-04-06T23:47:46.174Z,3.40
2023-04-06T23:50:13.058Z,3.40
2023-04-06T23:52:39.857Z,3.40
2023-04-06T23:55:07.255Z,3.40
2023-04-06T23:57:34.114Z,3.30
